AZU2603 SBKP-SBPA
Flight info
| Callsign | AZU2603 |
|---|---|
| Flight time | N/A |
| Altitude | 36000 |
| Route | SOVSI DCT ARTUT UZ38 VUKMO |
| Aircraft | A20N/M-SDE3FGHIRWY/LB1 |
Departure
| Time | 2026-04-27 13:52 |
|---|---|
| Airport | Viracopos International Airport (SBKP) |
Arrival
| Time | N/A |
|---|---|
| Airport | Porto Alegre-Salgado Filho International Airport (SBPA) |
| Time | Latitude | Longitude | Altitude | Speed | Heading |
|---|---|---|---|---|---|
| 2026-04-27 13:28 | -23.00377 | -47.14892 | 2157 ft | 0 kts | 218° |
| 2026-04-27 13:44 | -23.00373 | -47.14888 | 2157 ft | 4 kts | 220° |
| 2026-04-27 13:44 | -23.00356 | -47.14867 | 2155 ft | 4 kts | 256° |
| 2026-04-27 13:44 | -23.00358 | -47.14841 | 2156 ft | 4 kts | 298° |
| 2026-04-27 13:44 | -23.00370 | -47.14821 | 2153 ft | 1 kts | 308° |
| 2026-04-27 13:45 | -23.00370 | -47.14820 | 2153 ft | 0 kts | 308° |
| 2026-04-27 13:47 | -23.00360 | -47.14834 | 2154 ft | 9 kts | 308° |
| 2026-04-27 13:47 | -23.00317 | -47.14895 | 2149 ft | 9 kts | 308° |
| 2026-04-27 13:47 | -23.00280 | -47.14946 | 2156 ft | 8 kts | 308° |
| 2026-04-27 13:48 | -23.00252 | -47.14986 | 2153 ft | 6 kts | 308° |
| 2026-04-27 13:48 | -23.00228 | -47.15013 | 2153 ft | 5 kts | 326° |
| 2026-04-27 13:48 | -23.00168 | -47.14992 | 2149 ft | 15 kts | 38° |
| 2026-04-27 13:48 | -23.00078 | -47.14920 | 2156 ft | 17 kts | 36° |
| 2026-04-27 13:49 | -22.99998 | -47.14826 | 2154 ft | 18 kts | 47° |
| 2026-04-27 13:49 | -22.99908 | -47.14736 | 2150 ft | 18 kts | 58° |
| 2026-04-27 13:49 | -22.99916 | -47.14603 | 2155 ft | 18 kts | 124° |
| 2026-04-27 13:49 | -22.99921 | -47.14595 | 2151 ft | 0 kts | 128° |
| 2026-04-27 13:51 | -22.99961 | -47.14540 | 2152 ft | 36 kts | 128° |
| 2026-04-27 13:51 | -23.00269 | -47.14108 | 2153 ft | 105 kts | 128° |
| 2026-04-27 13:51 | -23.00829 | -47.13325 | 2152 ft | 158 kts | 128° |
| 2026-04-27 13:51 | -23.01560 | -47.12292 | 2529 ft | 175 kts | 128° |
| 2026-04-27 13:52 | -23.02333 | -47.11215 | 2968 ft | 194 kts | 126° |
| 2026-04-27 13:52 | -23.03366 | -47.10190 | 3337 ft | 213 kts | 158° |
| 2026-04-27 13:52 | -23.04872 | -47.10086 | 3558 ft | 229 kts | 198° |
| 2026-04-27 13:52 | -23.06418 | -47.10776 | 3808 ft | 252 kts | 210° |
| 2026-04-27 13:53 | -23.09674 | -47.12809 | 4960 ft | 279 kts | 214° |
| 2026-04-27 13:53 | -23.11288 | -47.13980 | 5791 ft | 278 kts | 227° |
| 2026-04-27 13:53 | -23.12675 | -47.15441 | 6676 ft | 278 kts | 227° |
| 2026-04-27 13:54 | -23.14087 | -47.16841 | 7533 ft | 279 kts | 226° |
| 2026-04-27 13:54 | -23.15553 | -47.18241 | 8364 ft | 282 kts | 225° |
| 2026-04-27 13:54 | -23.17039 | -47.19641 | 9177 ft | 284 kts | 225° |
| 2026-04-27 13:54 | -23.18537 | -47.21048 | 10005 ft | 286 kts | 225° |
| 2026-04-27 13:55 | -23.20151 | -47.22334 | 10722 ft | 292 kts | 213° |
| 2026-04-27 13:55 | -23.22092 | -47.23191 | 11054 ft | 316 kts | 199° |
| 2026-04-27 13:55 | -23.24302 | -47.23794 | 11214 ft | 338 kts | 198° |
| 2026-04-27 13:55 | -23.26625 | -47.24413 | 11735 ft | 347 kts | 198° |
| 2026-04-27 13:56 | -23.28992 | -47.25036 | 12365 ft | 353 kts | 198° |
| 2026-04-27 13:56 | -23.31386 | -47.25667 | 13080 ft | 355 kts | 198° |
| 2026-04-27 13:56 | -23.33758 | -47.26302 | 13760 ft | 357 kts | 198° |
| 2026-04-27 13:56 | -23.36178 | -47.26957 | 14348 ft | 360 kts | 198° |
| 2026-04-27 13:57 | -23.37823 | -47.27404 | 14733 ft | 362 kts | 198° |
| 2026-04-27 13:57 | -23.38617 | -47.27620 | 14917 ft | 363 kts | 198° |